Time;durP1;ratioP1;P1;durP2;ratioP2;P2;SDS_P1;SDS_P2;PMS_P1;PMS_P2;Temp;Humidity;BMP_temperature;BMP_pressure;BME280_temperature;BME280_humidity;BME280_pressure;Samples;Min_cycle;Max_cycle;Signal;HPM_P1;HPM_P2
2022/10/14 00:01:22;;;;;;;29.08;15.23;;;;;;;16.11;80.86;101058.66;5077691;27;20404;-73
2022/10/14 00:04:02;;;;;;;24.40;13.13;;;;;;;16.17;80.88;101044.75;5068614;28;20391;-73
2022/10/14 00:06:41;;;;;;;27.40;14.10;;;;;;;16.10;80.79;101046.00;5109122;27;20886;-73
2022/10/14 00:09:20;;;;;;;29.17;13.00;;;;;;;16.05;81.40;101048.00;5068248;27;20386;-73
2022/10/14 00:11:58;;;;;;;28.40;13.65;;;;;;;16.10;81.18;101047.91;5061881;28;20401;-73
2022/10/14 00:14:37;;;;;;;27.65;13.43;;;;;;;15.99;81.82;101048.09;5068373;28;20394;-73
2022/10/14 00:17:16;;;;;;;27.67;13.98;;;;;;;15.93;82.07;101052.09;5068677;28;20394;-73
2022/10/14 00:19:56;;;;;;;31.85;14.93;;;;;;;15.86;82.30;101051.66;5067557;28;20402;-73
2022/10/14 00:22:34;;;;;;;25.58;13.90;;;;;;;15.91;82.00;101054.31;5088843;27;20389;-73
2022/10/14 00:25:12;;;;;;;26.38;13.93;;;;;;;15.87;82.49;101052.47;5068446;28;20405;-72
2022/10/14 00:27:51;;;;;;;31.92;14.38;;;;;;;15.88;82.76;101049.38;5108956;27;20384;-73
2022/10/14 00:30:30;;;;;;;29.40;14.30;;;;;;;15.80;82.95;101048.16;5067813;28;20414;-73
2022/10/14 00:33:10;;;;;;;26.05;14.27;;;;;;;15.85;82.81;101047.25;5109071;27;20380;-73
2022/10/14 00:35:55;;;;;;;26.27;14.13;;;;;;;15.76;83.04;101044.38;5063829;28;20407;-73
2022/10/14 00:38:37;;;;;;;25.38;14.52;;;;;;;15.76;82.85;101047.16;5069471;27;20398;-73
2022/10/14 00:41:22;;;;;;;22.45;13.38;;;;;;;15.82;82.94;101036.81;5067271;28;20410;-73
2022/10/14 00:44:23;;;;;;;24.38;13.30;;;;;;;15.69;83.33;101041.22;5068605;28;20389;-72
2022/10/14 00:47:05;;;;;;;29.20;13.75;;;;;;;15.61;83.80;101037.19;5068363;28;20397;-72
2022/10/14 00:49:44;;;;;;;26.90;14.65;;;;;;;15.72;83.33;101030.38;5063255;28;20415;-73
2022/10/14 00:52:24;;;;;;;28.10;14.40;;;;;;;15.72;82.91;101029.56;5068496;28;21225;-73
2022/10/14 00:55:14;;;;;;;32.92;14.98;;;;;;;15.73;83.33;101017.38;5109176;27;20695;-73
2022/10/14 00:57:53;;;;;;;24.85;13.60;;;;;;;15.66;83.63;101014.22;5079876;27;20401;-73
2022/10/14 01:00:31;;;;;;;31.95;14.15;;;;;;;15.69;82.94;101017.19;5057008;28;20403;-73
2022/10/14 01:03:20;;;;;;;29.45;14.30;;;;;;;15.63;84.10;101014.84;5068618;28;20383;-73
2022/10/14 01:06:06;;;;;;;31.48;15.45;;;;;;;15.59;84.37;101004.38;5088578;28;20175;-73
2022/10/14 01:09:04;;;;;;;29.50;15.27;;;;;;;15.57;84.22;101005.81;5067658;28;20414;-73
2022/10/14 01:11:45;;;;;;;30.88;13.82;;;;;;;15.55;84.30;100997.84;5068834;28;20126;-73
2022/10/14 01:14:40;;;;;;;30.58;14.30;;;;;;;15.59;84.31;100998.88;5067755;28;20406;-73
2022/10/14 01:17:25;;;;;;;26.60;14.45;;;;;;;15.62;83.93;101000.22;5066583;28;20765;-73
2022/10/14 01:20:41;;;;;;;28.88;14.43;;;;;;;15.57;84.43;101003.06;5106421;27;20396;-73
2022/10/14 01:23:41;;;;;;;34.15;14.95;;;;;;;15.56;83.88;100993.94;5068503;28;20390;-73
2022/10/14 01:26:52;;;;;;;25.10;13.75;;;;;;;15.43;84.26;100981.78;5109080;27;20385;-73
2022/10/14 01:30:09;;;;;;;27.90;13.65;;;;;;;15.39;84.82;100993.75;5066293;28;20387;-73
2022/10/14 01:32:57;;;;;;;31.33;14.07;;;;;;;15.38;84.56;100995.66;5068609;28;20387;-73
2022/10/14 01:36:01;;;;;;;27.17;15.23;;;;;;;15.34;84.23;100991.06;5085530;28;20114;-73
2022/10/14 01:38:57;;;;;;;27.45;14.45;;;;;;;15.36;84.34;100981.38;5068497;27;20378;-73
2022/10/14 01:41:44;;;;;;;29.50;14.25;;;;;;;15.23;84.22;100974.69;5087725;27;20412;-72
2022/10/14 01:44:27;;;;;;;30.00;15.40;;;;;;;15.22;84.36;100977.75;5129574;27;20120;-73
2022/10/14 01:47:07;;;;;;;26.17;14.48;;;;;;;15.17;84.70;100982.22;5108941;27;20380;-73
2022/10/14 01:49:52;;;;;;;31.55;15.52;;;;;;;15.19;84.90;100987.44;5108287;27;20399;-73
2022/10/14 01:52:38;;;;;;;27.90;13.32;;;;;;;15.14;84.43;100976.50;5109017;27;20384;-73
2022/10/14 01:55:22;;;;;;;27.13;13.95;;;;;;;15.14;84.65;100980.06;5068549;28;20383;-73
2022/10/14 01:58:01;;;;;;;26.38;13.90;;;;;;;15.15;84.64;100978.16;5097879;27;20395;-72
2022/10/14 02:00:40;;;;;;;31.85;14.80;;;;;;;15.12;84.80;100984.25;5067726;28;20402;-73
2022/10/14 02:03:18;;;;;;;31.52;14.85;;;;;;;15.11;84.58;100982.63;5064655;28;20408;-73
2022/10/14 02:06:06;;;;;;;28.30;12.45;;;;;;;15.11;84.53;100971.59;5068433;28;20389;-72
2022/10/14 02:09:10;;;;;;;27.55;14.40;;;;;;;15.10;85.14;100970.75;5088709;27;20388;-73
2022/10/14 02:12:20;;;;;;;30.05;14.77;;;;;;;15.13;84.86;100969.34;5060877;28;20391;-73
2022/10/14 02:15:22;;;;;;;28.30;14.23;;;;;;;15.12;85.15;100956.69;5068485;28;20382;-72
2022/10/14 02:18:05;;;;;;;40.03;15.25;;;;;;;15.10;85.54;100961.69;5068550;28;20378;-73
2022/10/14 02:20:46;;;;;;;26.55;14.00;;;;;;;15.06;84.68;100958.72;5066039;28;20410;-72
2022/10/14 02:23:31;;;;;;;32.55;14.65;;;;;;;15.00;85.03;100954.41;5068713;27;20383;-73
2022/10/14 02:26:10;;;;;;;30.58;14.55;;;;;;;15.02;85.12;100963.19;5067450;28;20403;-72
2022/10/14 02:28:50;;;;;;;29.20;15.05;;;;;;;14.96;85.64;100956.94;5068442;28;20394;-72
2022/10/14 02:31:31;;;;;;;26.35;13.43;;;;;;;14.95;85.39;100960.81;5068350;28;20394;-73
2022/10/14 02:34:13;;;;;;;29.30;13.65;;;;;;;14.94;86.09;100955.59;5068616;28;20395;-72
2022/10/14 02:36:54;;;;;;;29.88;13.20;;;;;;;14.93;85.93;100957.53;5048544;28;20418;-73
2022/10/14 02:39:46;;;;;;;27.05;13.77;;;;;;;14.88;85.66;100943.84;5109256;27;20742;-72
2022/10/14 02:42:27;;;;;;;29.92;14.10;;;;;;;14.89;85.65;100948.22;5089005;27;20382;-72
2022/10/14 02:45:08;;;;;;;28.50;13.93;;;;;;;14.90;85.93;100944.34;5067631;28;20934;-73
2022/10/14 02:47:47;;;;;;;30.67;14.90;;;;;;;14.91;85.63;100946.81;5108834;27;20380;-73
2022/10/14 02:50:25;;;;;;;26.35;14.70;;;;;;;14.87;85.59;100948.53;5068638;28;20383;-72
2022/10/14 02:53:03;;;;;;;27.85;15.02;;;;;;;14.88;85.81;100952.94;5067612;28;20757;-73
2022/10/14 02:55:41;;;;;;;30.27;13.48;;;;;;;14.90;85.44;100955.38;5059588;28;20427;-73
2022/10/14 02:58:19;;;;;;;34.70;15.40;;;;;;;14.94;85.43;100942.66;5068571;28;20402;-72
2022/10/14 03:00:59;;;;;;;27.42;14.07;;;;;;;14.96;85.65;100953.38;5068487;28;20394;-72
2022/10/14 03:03:39;;;;;;;32.92;14.10;;;;;;;14.90;85.13;100944.34;5109144;27;20384;-72
2022/10/14 03:06:17;;;;;;;27.88;13.70;;;;;;;14.88;85.47;100952.13;5058355;28;20744;-72
2022/10/14 03:08:57;;;;;;;29.35;14.25;;;;;;;14.80;85.30;100955.56;5108921;27;20384;-72
2022/10/14 03:11:37;;;;;;;28.08;13.52;;;;;;;14.77;86.16;100963.28;5068348;28;20409;-73
2022/10/14 03:14:18;;;;;;;27.83;14.43;;;;;;;14.81;86.00;100962.69;5048008;28;20415;-73
2022/10/14 03:16:58;;;;;;;32.20;15.07;;;;;;;14.74;86.11;100968.53;5056531;28;20749;-73
2022/10/14 03:19:43;;;;;;;26.08;14.25;;;;;;;14.77;86.12;100968.00;5068585;28;20382;-72
2022/10/14 03:22:22;;;;;;;29.95;14.88;;;;;;;14.77;86.02;100963.28;5068487;28;20757;-72
2022/10/14 03:25:02;;;;;;;27.08;14.23;;;;;;;14.73;86.45;100953.16;5064317;28;20407;-72
2022/10/14 03:27:51;;;;;;;30.30;14.82;;;;;;;14.69;86.53;100950.16;5122623;27;20173;-73
2022/10/14 03:30:33;;;;;;;28.70;13.95;;;;;;;14.66;87.33;100945.25;5068651;28;20755;-73
2022/10/14 03:33:19;;;;;;;31.42;15.20;;;;;;;14.72;87.10;100955.06;5096972;27;20409;-72
2022/10/14 03:36:11;;;;;;;28.52;15.25;;;;;;;14.71;86.22;100953.44;5056129;28;20869;-72
2022/10/14 03:38:56;;;;;;;26.08;13.90;;;;;;;14.73;86.30;100951.22;5068427;28;20382;-72
2022/10/14 03:41:49;;;;;;;28.48;13.95;;;;;;;14.68;86.36;100956.81;5068819;28;20391;-72
2022/10/14 03:44:32;;;;;;;28.23;14.48;;;;;;;14.67;86.55;100952.41;5066477;28;20409;-72
2022/10/14 03:47:23;;;;;;;32.28;15.52;;;;;;;14.66;86.67;100950.75;5088795;27;1353407;-72
2022/10/14 03:50:03;;;;;;;31.08;15.45;;;;;;;14.72;86.00;100948.75;5068596;28;20382;-73
2022/10/14 03:53:02;;;;;;;26.77;13.52;;;;;;;14.64;86.14;100947.50;5081588;27;20941;-73
2022/10/14 03:55:45;;;;;;;30.02;14.63;;;;;;;14.71;86.45;100942.41;5067378;28;20915;-73
2022/10/14 03:58:25;;;;;;;24.20;12.95;;;;;;;14.67;86.59;100957.09;5068473;28;20383;-73
2022/10/14 04:01:11;;;;;;;29.13;14.18;;;;;;;14.63;86.41;100945.84;5109011;27;20382;-72
2022/10/14 04:04:23;;;;;;;35.83;14.05;;;;;;;14.61;86.62;100948.06;5062013;28;20406;-73
2022/10/14 04:07:01;;;;;;;29.48;14.10;;;;;;;14.58;87.01;100943.19;5108224;27;20419;-72
2022/10/14 04:09:39;;;;;;;27.88;14.70;;;;;;;14.57;86.93;100944.28;5067188;28;20513;-72
2022/10/14 04:12:19;;;;;;;25.63;13.80;;;;;;;14.56;87.13;100948.16;5068462;28;20931;-72
2022/10/14 04:15:10;;;;;;;26.80;14.32;;;;;;;14.50;87.29;100937.22;5060649;28;20408;-72
2022/10/14 04:18:07;;;;;;;31.95;14.40;;;;;;;14.52;87.11;100945.19;5067868;28;20137;-72
2022/10/14 04:20:47;;;;;;;32.60;14.73;;;;;;;14.56;87.17;100940.72;5068591;28;20872;-72
2022/10/14 04:23:28;;;;;;;33.70;14.50;;;;;;;14.65;86.63;100949.13;5068423;28;20382;-72
2022/10/14 04:26:13;;;;;;;26.05;14.20;;;;;;;14.81;85.81;100957.19;5063503;28;20410;-72
2022/10/14 04:28:54;;;;;;;32.45;14.68;;;;;;;14.80;85.75;100956.34;5068451;28;20383;-72
2022/10/14 04:31:44;;;;;;;28.98;14.82;;;;;;;14.73;86.08;100942.97;5068456;28;20387;-72
2022/10/14 04:34:22;;;;;;;30.65;14.65;;;;;;;14.74;86.38;100943.75;5066711;28;20438;-72
2022/10/14 04:37:02;;;;;;;26.50;14.25;;;;;;;14.64;86.42;100930.97;5074248;28;20398;-72
2022/10/14 04:40:04;;;;;;;27.13;14.27;;;;;;;14.69;86.11;100939.16;5068465;28;20390;-72
2022/10/14 04:42:45;;;;;;;30.48;15.35;;;;;;;14.67;86.87;100935.06;5063889;28;20402;-72
2022/10/14 04:45:32;;;;;;;30.00;14.95;;;;;;;14.59;86.69;100934.63;5066168;28;20409;-73
2022/10/14 04:48:12;;;;;;;33.17;15.82;;;;;;;14.55;86.54;100941.00;5047166;28;21659;-72
2022/10/14 04:50:53;;;;;;;27.75;13.70;;;;;;;14.50;86.85;100937.22;5068187;28;20904;-73
2022/10/14 04:53:52;;;;;;;30.50;14.93;;;;;;;14.46;86.94;100949.94;5067661;28;20383;-82
2022/10/14 04:56:54;;;;;;;33.70;16.30;;;;;;;14.62;85.54;100935.97;5110010;27;20388;-72
2022/10/14 04:59:33;;;;;;;27.60;13.68;;;;;;;14.55;86.10;100932.75;5041691;28;20404;-73
2022/10/14 05:02:28;;;;;;;28.05;14.38;;;;;;;14.54;86.14;100931.09;5068156;28;20391;-71
2022/10/14 05:05:10;;;;;;;30.50;14.10;;;;;;;14.51;86.92;100943.53;5067004;28;20398;-72
2022/10/14 05:07:51;;;;;;;36.85;15.43;;;;;;;14.47;86.76;100940.56;5065255;28;20398;-72
2022/10/14 05:10:47;;;;;;;30.30;15.18;;;;;;;14.45;86.83;100942.81;5066813;28;20409;-73
2022/10/14 05:13:38;;;;;;;29.42;13.95;;;;;;;14.44;87.04;100941.19;5068538;28;20410;-72
2022/10/14 05:16:19;;;;;;;26.90;14.45;;;;;;;14.46;87.12;100941.69;5057409;28;20418;-72
2022/10/14 05:18:57;;;;;;;30.98;15.25;;;;;;;14.42;86.88;100943.38;5068465;28;20394;-72
2022/10/14 05:21:37;;;;;;;25.63;13.32;;;;;;;14.38;87.49;100939.59;5068364;28;20766;-72
2022/10/14 05:24:23;;;;;;;30.17;14.68;;;;;;;14.39;87.41;100941.25;5059888;28;20412;-72
2022/10/14 05:27:02;;;;;;;32.80;14.23;;;;;;;14.39;87.01;100941.25;5058269;28;21227;-72
2022/10/14 05:29:41;;;;;;;28.08;14.38;;;;;;;14.38;87.01;100939.59;5066490;28;20402;-72
2022/10/14 05:32:20;;;;;;;32.35;14.60;;;;;;;14.36;87.06;100942.66;5107509;27;20408;-72
2022/10/14 05:35:01;;;;;;;32.10;15.40;;;;;;;14.37;87.25;100938.78;5068444;28;20865;-71
2022/10/14 05:37:45;;;;;;;33.67;14.73;;;;;;;14.43;86.46;100942.28;5068456;28;20394;-71
2022/10/14 05:40:28;;;;;;;32.03;14.93;;;;;;;14.41;86.56;100944.50;5049280;28;20380;-74
2022/10/14 05:43:07;;;;;;;32.05;15.32;;;;;;;14.39;87.11;100932.97;5051632;28;20759;-73
2022/10/14 05:45:48;;;;;;;28.80;14.05;;;;;;;14.54;86.31;100944.88;5048045;28;20411;-72
2022/10/14 05:48:26;;;;;;;29.60;13.38;;;;;;;14.57;85.47;100941.53;5068386;28;20387;-73
2022/10/14 05:51:06;;;;;;;30.90;14.35;;;;;;;14.53;85.67;100935.81;5008782;28;20390;-72
2022/10/14 05:53:46;;;;;;;33.10;15.00;;;;;;;14.47;86.14;100928.75;5096405;27;1365190;-72
2022/10/14 05:56:29;;;;;;;31.88;14.70;;;;;;;14.46;86.32;100933.44;5088708;28;20385;-72
2022/10/14 05:59:09;;;;;;;31.67;15.35;;;;;;;14.47;86.18;100932.31;5108926;27;20380;-72
2022/10/14 06:01:47;;;;;;;35.83;14.25;;;;;;;14.52;85.45;100931.44;5108829;27;20403;-72
2022/10/14 06:04:25;;;;;;;31.70;14.63;;;;;;;14.62;85.59;100933.22;5088159;28;20400;-71
2022/10/14 06:07:05;;;;;;;33.13;14.13;;;;;;;14.62;85.99;100935.97;5067839;28;20383;-72
2022/10/14 06:09:46;;;;;;;26.25;13.50;;;;;;;14.65;85.60;100935.34;5067860;28;20387;-73
2022/10/14 06:12:25;;;;;;;30.63;14.55;;;;;;;14.81;84.60;100937.91;5067882;28;20379;-73
2022/10/14 06:15:16;;;;;;;36.05;14.45;;;;;;;14.91;84.46;100946.00;5108373;27;20383;-71
2022/10/14 06:17:54;;;;;;;35.08;14.85;;;;;;;14.96;84.37;100954.19;5067827;27;20382;-72
2022/10/14 06:20:35;;;;;;;31.55;14.50;;;;;;;15.12;83.39;100951.19;5067943;28;20387;-72
2022/10/14 06:23:12;;;;;;;30.23;14.70;;;;;;;15.22;82.92;100950.19;5108441;27;20384;-72
2022/10/14 06:25:51;;;;;;;26.05;13.75;;;;;;;15.26;83.03;100953.97;5068148;28;20386;-72
2022/10/14 06:28:29;;;;;;;27.95;14.35;;;;;;;15.28;83.33;100963.59;5067543;28;20761;-72
2022/10/14 06:31:09;;;;;;;31.13;13.93;;;;;;;15.42;82.71;100954.50;5108303;27;20874;-73
2022/10/14 06:33:47;;;;;;;28.90;14.68;;;;;;;15.48;82.05;100956.06;5067924;28;20391;-73
2022/10/14 06:36:25;;;;;;;27.20;13.63;;;;;;;15.76;81.17;100953.31;5058327;28;20384;-73
2022/10/14 06:39:04;;;;;;;29.90;14.02;;;;;;;15.78;80.56;100944.75;5068113;28;20394;-72
2022/10/14 06:41:41;;;;;;;30.60;13.43;;;;;;;15.82;80.23;100940.22;5108531;27;20392;-73
2022/10/14 06:44:30;;;;;;;29.50;14.70;;;;;;;16.22;78.48;100953.50;5088123;27;20453;-72
2022/10/14 06:47:11;;;;;;;30.83;14.45;;;;;;;16.44;77.24;100957.47;5067694;28;20397;-73
2022/10/14 06:49:49;;;;;;;33.63;14.30;;;;;;;16.42;77.49;100962.50;5108527;27;20121;-72
2022/10/14 06:52:29;;;;;;;27.20;13.77;;;;;;;16.55;77.06;100963.56;5108570;27;20383;-73
2022/10/14 06:55:07;;;;;;;26.75;12.75;;;;;;;16.66;76.74;100971.31;5068066;28;20382;-73
2022/10/14 06:57:45;;;;;;;24.55;13.68;;;;;;;16.76;76.49;100966.66;5108374;27;20882;-72
2022/10/14 07:00:22;;;;;;;24.23;12.95;;;;;;;16.63;76.45;100968.38;5093001;27;1383630;-72
2022/10/14 07:03:00;;;;;;;31.33;13.80;;;;;;;16.82;76.69;100964.63;5108628;27;20380;-72
2022/10/14 07:05:40;;;;;;;30.42;14.57;;;;;;;17.10;75.64;100976.41;5128990;27;20924;-72
2022/10/14 07:08:21;;;;;;;29.50;14.00;;;;;;;17.09;75.12;100972.00;5067976;28;20896;-73
2022/10/14 07:11:01;;;;;;;26.90;13.77;;;;;;;17.10;76.08;100975.59;5068273;28;20383;-74
2022/10/14 07:13:41;;;;;;;27.75;14.27;;;;;;;17.38;75.76;100979.03;5088613;27;20385;-72
2022/10/14 07:16:22;;;;;;;30.48;13.80;;;;;;;17.75;74.74;100976.13;5108370;27;20391;-72
2022/10/14 07:19:00;;;;;;;24.75;13.20;;;;;;;18.00;72.81;100980.09;5048189;28;20708;-72
2022/10/14 07:21:38;;;;;;;30.75;14.20;;;;;;;18.19;72.14;100964.38;5067845;28;20410;-72
2022/10/14 07:24:19;;;;;;;29.23;13.80;;;;;;;18.22;72.15;100961.78;5068028;28;20385;-73
2022/10/14 07:26:58;;;;;;;29.75;15.13;;;;;;;18.23;71.37;100963.41;5067711;28;20398;-74
2022/10/14 07:29:36;;;;;;;27.65;14.18;;;;;;;18.33;71.44;100975.31;5068629;28;20391;-73
2022/10/14 07:32:14;;;;;;;25.80;13.93;;;;;;;18.39;70.70;100963.75;5108750;27;20380;-73
2022/10/14 07:34:53;;;;;;;29.15;14.55;;;;;;;18.39;70.86;100966.53;5067894;28;20761;-73
2022/10/14 07:37:31;;;;;;;27.25;14.63;;;;;;;18.92;69.88;100965.72;5094169;27;20380;-72
2022/10/14 07:40:10;;;;;;;26.20;14.23;;;;;;;19.08;68.87;100974.38;5055618;28;20380;-72
2022/10/14 07:42:49;;;;;;;29.45;15.10;;;;;;;19.45;68.19;100976.72;5068033;28;20397;-72
2022/10/14 07:45:33;;;;;;;30.15;13.93;;;;;;;19.51;67.10;100977.38;5108563;27;20384;-73
2022/10/14 07:48:12;;;;;;;28.90;14.88;;;;;;;19.59;66.63;100974.59;5108543;27;20384;-72
2022/10/14 07:50:50;;;;;;;27.27;13.98;;;;;;;19.98;65.82;100977.38;5108530;27;20384;-72
2022/10/14 07:53:28;;;;;;;28.55;14.05;;;;;;;20.07;65.08;100985.66;5068712;28;20885;-73
2022/10/14 07:56:08;;;;;;;28.25;14.05;;;;;;;20.28;63.45;100979.31;5068017;28;20401;-72
2022/10/14 07:58:47;;;;;;;27.52;13.23;;;;;;;20.40;63.14;100978.59;5108505;27;20505;-73
2022/10/14 08:01:26;;;;;;;31.20;14.38;;;;;;;20.76;61.32;100990.25;5067999;28;20390;-73
2022/10/14 08:04:04;;;;;;;25.00;13.43;;;;;;;21.04;60.10;100995.28;5068095;28;20390;-72
2022/10/14 08:06:45;;;;;;;28.67;14.57;;;;;;;21.17;60.79;100982.25;5184034;27;20124;-73
2022/10/14 08:09:24;;;;;;;23.23;12.48;;;;;;;21.17;59.71;100990.59;5108437;27;20387;-73
2022/10/14 08:12:02;;;;;;;30.00;14.60;;;;;;;21.28;58.89;100993.75;5095295;27;1378639;-72
2022/10/14 08:14:42;;;;;;;28.73;13.93;;;;;;;21.48;59.65;101004.03;5067994;28;20394;-73
2022/10/14 08:17:20;;;;;;;23.77;13.13;;;;;;;21.47;57.88;101005.16;5067922;28;20386;-73
2022/10/14 08:19:58;;;;;;;26.35;14.23;;;;;;;21.70;59.03;101004.75;5108432;27;20384;-73
2022/10/14 08:22:36;;;;;;;22.98;13.50;;;;;;;21.71;58.20;101006.38;5068083;28;20382;-74
2022/10/14 08:25:13;;;;;;;28.58;13.75;;;;;;;21.90;57.49;101010.59;5101312;27;1460452;-73
2022/10/14 08:27:56;;;;;;;29.45;14.65;;;;;;;21.88;57.37;101008.16;5067873;28;20387;-75
2022/10/14 08:30:36;;;;;;;24.20;13.70;;;;;;;21.72;58.04;101010.00;5108605;27;20372;-73
2022/10/14 08:33:15;;;;;;;29.52;14.95;;;;;;;22.04;57.42;101006.66;5067953;28;20382;-72
2022/10/14 08:35:54;;;;;;;27.40;14.60;;;;;;;21.90;56.74;101002.25;5062879;28;20388;-72
2022/10/14 08:38:32;;;;;;;22.88;14.70;;;;;;;21.86;56.70;101006.88;5129092;27;20387;-73
2022/10/14 08:41:13;;;;;;;31.10;14.23;;;;;;;22.17;56.73;101011.06;5068081;28;20394;-73
2022/10/14 08:44:07;;;;;;;30.73;14.18;;;;;;;22.17;56.32;101008.28;5088180;27;20385;-75
2022/10/14 08:47:09;;;;;;;31.75;14.63;;;;;;;21.86;56.64;101010.47;5088004;27;20747;-72
2022/10/14 08:50:16;;;;;;;28.58;15.13;;;;;;;22.27;55.29;101021.75;5108529;27;20395;-72
2022/10/14 08:53:02;;;;;;;21.92;11.32;;;;;;;22.22;54.92;101013.63;5108500;27;20376;-73
2022/10/14 08:55:44;;;;;;;24.73;13.65;;;;;;;22.12;56.11;101017.69;5108592;27;20391;-73
2022/10/14 08:58:38;;;;;;;25.75;14.52;;;;;;;22.12;55.69;101014.91;5068004;28;20391;-73
2022/10/14 09:01:38;;;;;;;24.02;14.23;;;;;;;22.46;54.98;101028.69;5108460;27;20384;-72
2022/10/14 09:04:18;;;;;;;22.73;12.18;;;;;;;22.58;54.37;101021.50;5108546;27;20406;-72
2022/10/14 09:06:58;;;;;;;25.52;13.55;;;;;;;22.47;54.83;101023.91;5067946;28;20394;-72
2022/10/14 09:09:42;;;;;;;25.60;13.27;;;;;;;22.40;55.16;101018.94;5053974;28;20394;-73
2022/10/14 09:12:24;;;;;;;31.95;14.95;;;;;;;22.65;54.33;101022.53;5108714;27;20387;-72
2022/10/14 09:15:27;;;;;;;29.15;13.48;;;;;;;22.78;53.77;101017.72;5102607;27;20385;-73
2022/10/14 09:18:31;;;;;;;30.60;15.52;;;;;;;23.03;53.54;101017.63;5067931;27;20398;-73
2022/10/14 09:21:36;;;;;;;30.77;14.63;;;;;;;23.06;52.78;101016.09;5108828;27;20380;-73
2022/10/14 09:24:37;;;;;;;25.60;15.15;;;;;;;23.09;52.69;101009.81;5108683;27;20422;-74
2022/10/14 09:27:21;;;;;;;34.55;15.10;;;;;;;22.93;52.85;101006.97;5095475;27;1395834;-72
2022/10/14 09:30:09;;;;;;;30.63;15.63;;;;;;;22.85;53.17;101008.75;5128973;27;20381;-73
2022/10/14 09:32:51;;;;;;;26.55;14.50;;;;;;;22.68;53.88;101007.06;5068017;28;20385;-72
2022/10/14 09:35:34;;;;;;;29.08;15.70;;;;;;;23.08;52.46;101003.41;5060155;28;20383;-73
2022/10/14 09:38:13;;;;;;;30.17;14.65;;;;;;;23.05;53.22;101004.13;5068153;28;20876;-73
2022/10/14 09:40:57;;;;;;;34.00;16.40;;;;;;;23.08;52.03;100994.25;5108730;27;20392;-73
2022/10/14 09:43:36;;;;;;;25.02;14.52;;;;;;;23.42;52.17;101002.34;5108600;27;20380;-73
2022/10/14 09:46:16;;;;;;;28.30;14.32;;;;;;;23.42;51.25;100996.78;5108577;27;20392;-73
2022/10/14 09:48:55;;;;;;;27.23;15.02;;;;;;;23.71;51.69;100998.31;5067950;28;20733;-73
2022/10/14 09:51:34;;;;;;;30.63;15.73;;;;;;;23.93;51.08;100998.03;5108560;27;20377;-73
2022/10/14 09:54:25;;;;;;;29.52;14.98;;;;;;;23.81;51.06;101005.34;5108493;27;20376;-74
2022/10/14 09:57:07;;;;;;;30.92;16.10;;;;;;;23.94;51.02;101002.47;5068153;28;20379;-73
2022/10/14 09:59:54;;;;;;;26.17;14.50;;;;;;;23.87;51.77;100994.69;5108618;27;20383;-73
2022/10/14 10:02:40;;;;;;;29.75;15.88;;;;;;;24.02;50.93;100990.28;5175872;27;20130;-73
2022/10/14 10:05:31;;;;;;;29.90;15.88;;;;;;;23.73;51.76;100992.38;5068177;28;20386;-74
2022/10/14 10:08:12;;;;;;;29.40;15.82;;;;;;;23.92;51.98;100986.06;5108436;27;20380;-73
2022/10/14 10:11:12;;;;;;;28.20;15.27;;;;;;;23.80;52.29;100988.94;5108576;27;20395;-73
2022/10/14 10:13:52;;;;;;;25.73;15.15;;;;;;;24.19;51.37;100994.69;5108701;27;20380;-73
2022/10/14 10:16:31;;;;;;;36.33;17.02;;;;;;;24.33;51.27;100988.59;5108331;27;20749;-74
2022/10/14 10:19:43;;;;;;;29.65;15.93;;;;;;;24.17;51.46;100977.47;5068029;28;20383;-74
2022/10/14 10:22:27;;;;;;;30.05;16.13;;;;;;;24.70;49.94;100982.59;5068146;28;20890;-74
2022/10/14 10:25:07;;;;;;;50.75;19.30;;;;;;;24.61;49.39;100970.84;5067666;28;20390;-74
2022/10/14 10:27:48;;;;;;;31.25;15.07;;;;;;;24.82;49.81;100966.88;5068021;28;20390;-75
2022/10/14 10:30:34;;;;;;;31.17;16.45;;;;;;;24.51;50.06;100963.84;5108369;27;20388;-75
2022/10/14 10:33:27;;;;;;;29.55;15.70;;;;;;;24.86;49.37;100961.34;5108365;27;20120;-75
2022/10/14 10:36:27;;;;;;;29.63;16.02;;;;;;;24.43;50.48;100968.47;5101151;27;20740;-75
2022/10/14 10:39:30;;;;;;;29.33;16.45;;;;;;;24.33;49.71;100957.84;5108320;27;20380;-75
2022/10/14 10:42:21;;;;;;;30.80;15.88;;;;;;;24.67;49.86;100955.38;5067666;28;20386;-75
2022/10/14 10:45:14;;;;;;;28.90;16.92;;;;;;;25.17;48.62;100953.97;5108466;27;20380;-74
2022/10/14 10:48:06;;;;;;;31.95;16.48;;;;;;;25.31;47.59;100953.41;5081955;27;20401;-74
2022/10/14 10:51:06;;;;;;;33.67;16.92;;;;;;;25.19;47.29;100951.59;5108555;27;20384;-74
2022/10/14 10:54:14;;;;;;;30.67;17.98;;;;;;;25.16;47.43;100950.34;5067925;28;20410;-75
2022/10/14 10:56:58;;;;;;;31.58;17.60;;;;;;;25.35;47.09;100951.47;5067658;28;20390;-74
2022/10/14 10:59:51;;;;;;;34.55;16.92;;;;;;;25.20;48.25;100951.22;5104556;27;1364864;-74
2022/10/14 11:03:08;;;;;;;35.42;17.52;;;;;;;25.09;47.96;100941.81;5088214;27;20410;-74
2022/10/14 11:13:10;;;;;;;35.78;17.88;;;;;;;24.67;49.35;100919.00;5067716;28;20378;-74
2022/10/14 11:16:06;;;;;;;35.95;18.63;;;;;;;25.06;48.79;100914.53;5055606;28;20409;-75
2022/10/14 11:19:12;;;;;;;40.22;19.50;;;;;;;24.98;48.78;100913.63;5108341;27;20380;-74
2022/10/14 11:22:10;;;;;;;35.45;18.92;;;;;;;25.14;49.36;100910.72;5067699;27;20398;-74
2022/10/14 11:25:05;;;;;;;41.92;20.45;;;;;;;24.14;49.68;100911.09;5067625;28;20138;-73
2022/10/14 11:28:12;;;;;;;38.55;19.05;;;;;;;24.02;51.07;100898.03;5108411;27;20383;-74
2022/10/14 11:31:13;;;;;;;36.65;19.73;;;;;;;24.81;49.32;100904.50;5067870;28;20382;-74
2022/10/14 11:34:18;;;;;;;36.28;20.50;;;;;;;25.37;48.04;100890.31;5067745;28;20900;-74
2022/10/14 11:37:46;;;;;;;37.83;17.95;;;;;;;25.75;46.04;100898.91;5074010;27;20763;-74
2022/10/14 11:40:38;;;;;;;33.20;18.05;;;;;;;25.73;46.17;100899.28;5108367;27;20765;-73
2022/10/14 11:43:44;;;;;;;34.92;18.88;;;;;;;25.39;47.26;100887.09;5068387;28;21015;-74
2022/10/14 11:46:27;;;;;;;32.55;18.13;;;;;;;25.40;47.87;100889.53;5067826;28;20892;-74
2022/10/14 11:49:14;;;;;;;34.97;18.75;;;;;;;25.23;48.18;100885.25;5087935;27;20428;-74
2022/10/14 11:52:01;;;;;;;29.88;16.58;;;;;;;24.75;49.95;100879.97;5150249;27;20123;-88
2022/10/14 11:54:53;;;;;;;29.38;15.30;;;;;;;24.55;49.21;100871.59;5149953;27;20416;-87
2022/10/14 11:58:14;;;;;;;35.45;18.30;;;;;;;24.09;51.48;100881.44;5129252;27;20395;-87
2022/10/14 12:01:08;;;;;;;34.97;19.13;;;;;;;24.00;52.30;100878.81;5170666;27;20126;-89
2022/10/14 12:04:03;;;;;;;37.00;19.60;;;;;;;23.88;52.30;100881.75;5068266;28;20382;-88
2022/10/14 12:06:50;;;;;;;36.75;18.60;;;;;;;23.85;52.32;100866.53;5088367;27;20381;-88
2022/10/14 12:09:37;;;;;;;33.67;18.13;;;;;;;23.76;53.18;100868.72;5170772;27;20376;-88
2022/10/14 12:12:43;;;;;;;34.00;18.58;;;;;;;23.72;53.01;100862.22;5088284;27;20735;-88
2022/10/14 12:15:25;;;;;;;35.28;18.60;;;;;;;23.69;52.49;100857.34;5168319;27;20391;-87
2022/10/14 12:18:09;;;;;;;36.00;17.95;;;;;;;23.62;53.52;100856.03;5104121;27;20392;-87
2022/10/14 12:21:01;;;;;;;36.13;17.42;;;;;;;23.61;53.31;100862.78;5064897;28;20379;-87
2022/10/14 12:23:47;;;;;;;29.20;17.52;;;;;;;23.39;53.70;100857.84;5149370;27;20179;-87
2022/10/14 12:26:48;;;;;;;37.45;17.77;;;;;;;23.49;55.12;100854.50;5089672;27;20385;-88
2022/10/14 12:29:35;;;;;;;32.90;17.50;;;;;;;23.44;54.77;100843.63;5099618;27;20393;-86
2022/10/14 12:32:30;;;;;;;33.28;17.55;;;;;;;23.51;54.48;100846.56;5091950;27;20739;-87
2022/10/14 12:35:49;;;;;;;30.63;16.88;;;;;;;23.58;54.97;100841.19;5046882;28;20384;-87
2022/10/14 12:38:29;;;;;;;31.90;16.85;;;;;;;23.80;54.34;100844.44;5083195;27;1380390;-86
2022/10/14 12:41:36;;;;;;;32.53;17.48;;;;;;;23.81;54.07;100857.25;5119891;27;20402;-87